createdAt,value
2023-04-14T00:01:00.963Z,18.45
2023-04-14T00:02:14.257Z,18.47
2023-04-14T00:03:27.261Z,18.45
2023-04-14T00:04:30.797Z,18.47
2023-04-14T00:05:45.083Z,18.47
2023-04-14T00:06:58.735Z,18.44
2023-04-14T00:08:01.494Z,18.44
2023-04-14T00:09:15.219Z,18.41
2023-04-14T00:10:27.859Z,18.44
2023-04-14T00:11:31.190Z,18.45
2023-04-14T00:12:43.800Z,18.43
2023-04-14T00:13:57.196Z,18.41
2023-04-14T00:14:59.876Z,18.4
2023-04-14T00:16:13.191Z,18.41
2023-04-14T00:17:25.868Z,18.4
2023-04-14T00:18:39.181Z,18.4
2023-04-14T00:19:41.856Z,18.37
2023-04-14T00:20:55.170Z,18.38
2023-04-14T00:22:07.773Z,18.38
2023-04-14T00:23:11.156Z,18.38
2023-04-14T00:24:23.802Z,18.37
2023-04-14T00:25:37.213Z,18.37
2023-04-14T00:26:49.840Z,18.38
2023-04-14T00:27:53.185Z,18.37
2023-04-14T00:29:05.957Z,18.37
2023-04-14T00:30:19.193Z,18.37
2023-04-14T00:31:21.944Z,18.36
2023-04-14T00:32:35.232Z,18.37
2023-04-14T00:33:47.984Z,18.36
2023-04-14T00:34:51.659Z,18.34
2023-04-14T00:36:04.273Z,18.33
2023-04-14T00:37:17.702Z,18.36
2023-04-14T00:38:30.313Z,18.34
2023-04-14T00:39:33.681Z,18.33
2023-04-14T00:40:46.299Z,18.3
2023-04-14T00:41:59.697Z,18.33
2023-04-14T00:43:02.445Z,18.34
2023-04-14T00:44:16.674Z,18.33
2023-04-14T00:45:29.406Z,18.3
2023-04-14T00:46:33.225Z,18.3
2023-04-14T00:47:46.060Z,18.31
2023-04-14T00:48:59.861Z,18.31
2023-04-14T00:50:02.798Z,18.33
2023-04-14T00:51:16.179Z,18.31
2023-04-14T00:52:28.821Z,18.31
2023-04-14T00:53:42.165Z,18.29
2023-04-14T00:54:44.869Z,18.29
2023-04-14T00:55:58.207Z,18.29
2023-04-14T00:57:10.804Z,18.29
2023-04-14T00:58:14.198Z,18.29
2023-04-14T00:59:26.796Z,18.3
2023-04-14T01:00:40.178Z,18.27
2023-04-14T01:01:43.042Z,18.3
2023-04-14T01:02:56.783Z,18.3
2023-04-14T01:04:09.677Z,18.27
2023-04-14T01:05:13.379Z,18.26
2023-04-14T01:06:26.080Z,18.26
2023-04-14T01:07:39.714Z,18.26
2023-04-14T01:08:52.319Z,18.26
2023-04-14T01:09:55.704Z,18.27
2023-04-14T01:11:08.324Z,18.27
2023-04-14T01:12:21.715Z,18.24
2023-04-14T01:13:24.428Z,18.29
2023-04-14T01:14:37.715Z,18.26
2023-04-14T01:15:50.386Z,18.26
2023-04-14T01:17:04.224Z,18.26
2023-04-14T01:18:06.931Z,18.23
2023-04-14T01:19:20.686Z,18.23
2023-04-14T01:20:33.334Z,18.23
2023-04-14T01:21:36.721Z,18.23
2023-04-14T01:22:49.436Z,18.22
2023-04-14T01:24:02.753Z,18.22
2023-04-14T01:25:05.497Z,18.23
2023-04-14T01:26:19.214Z,18.22
2023-04-14T01:27:31.945Z,18.22
2023-04-14T01:28:35.191Z,18.2
2023-04-14T01:29:47.820Z,18.19
2023-04-14T01:31:01.215Z,18.2
2023-04-14T01:32:13.858Z,18.2
2023-04-14T01:33:17.215Z,18.2
2023-04-14T01:34:29.868Z,18.2
2023-04-14T01:35:43.189Z,18.19
2023-04-14T01:36:45.917Z,18.17
2023-04-14T01:37:59.222Z,18.2
2023-04-14T01:39:11.865Z,18.2
2023-04-14T01:40:25.192Z,18.19
2023-04-14T01:41:27.881Z,18.2
2023-04-14T01:42:41.195Z,18.19
2023-04-14T01:43:53.971Z,18.16
2023-04-14T01:44:57.679Z,18.17
2023-04-14T01:46:10.375Z,18.17
2023-04-14T01:47:23.792Z,18.16
2023-04-14T01:48:26.668Z,18.19
2023-04-14T01:49:40.262Z,18.16
2023-04-14T01:50:52.990Z,18.16
2023-04-14T01:52:06.687Z,18.16
2023-04-14T01:53:09.410Z,18.16
2023-04-14T01:54:22.701Z,18.13
2023-04-14T01:55:35.329Z,18.16
2023-04-14T01:56:38.714Z,18.16
2023-04-14T01:57:51.373Z,18.17
2023-04-14T01:59:04.692Z,18.14
2023-04-14T02:00:17.348Z,18.12
2023-04-14T02:01:20.743Z,18.14
2023-04-14T02:02:33.583Z,18.14
2023-04-14T02:03:47.338Z,18.16
2023-04-14T02:04:51.235Z,18.13
2023-04-14T02:06:04.721Z,18.17
2023-04-14T02:07:17.365Z,18.13
2023-04-14T02:08:20.756Z,18.13
2023-04-14T02:09:33.396Z,18.13
2023-04-14T02:10:46.706Z,18.13
2023-04-14T02:11:59.345Z,18.12
2023-04-14T02:13:02.695Z,18.13
2023-04-14T02:14:15.334Z,18.12
2023-04-14T02:15:28.787Z,18.12
2023-04-14T02:16:31.576Z,18.13
2023-04-14T02:17:45.255Z,18.12
2023-04-14T02:18:58.035Z,18.12
2023-04-14T02:20:11.718Z,18.13
2023-04-14T02:21:14.406Z,18.13
2023-04-14T02:22:27.722Z,18.12
2023-04-14T02:23:40.365Z,18.12
2023-04-14T02:24:43.703Z,18.12
2023-04-14T02:25:56.320Z,18.1
2023-04-14T02:27:09.706Z,18.12
2023-04-14T02:28:12.379Z,18.09
2023-04-14T02:29:25.698Z,18.1
2023-04-14T02:30:38.403Z,18.12
2023-04-14T02:31:51.696Z,18.09
2023-04-14T02:32:54.388Z,18.09
2023-04-14T02:34:07.715Z,18.09
2023-04-14T02:35:20.335Z,18.07
2023-04-14T02:36:33.746Z,18.09
2023-04-14T02:37:36.467Z,18.07
2023-04-14T02:38:49.744Z,18.07
2023-04-14T02:40:02.384Z,18.09
2023-04-14T02:41:05.737Z,18.07
2023-04-14T02:42:18.388Z,18.06
2023-04-14T02:43:31.777Z,18.06
2023-04-14T02:44:34.570Z,18.09
2023-04-14T02:45:48.253Z,18.07
2023-04-14T02:47:00.917Z,18.06
2023-04-14T02:48:14.239Z,18.04
2023-04-14T02:49:16.972Z,18.07
2023-04-14T02:50:30.224Z,18.07
2023-04-14T02:51:42.895Z,18.07
2023-04-14T02:52:46.249Z,18.07
2023-04-14T02:53:58.958Z,18.06
2023-04-14T02:55:12.229Z,18.04
2023-04-14T02:56:24.889Z,18.06
2023-04-14T02:57:28.237Z,18.06
2023-04-14T02:58:40.878Z,18.06
2023-04-14T02:59:54.256Z,18.04
2023-04-14T03:00:56.947Z,18.06
2023-04-14T03:02:10.402Z,18.06
2023-04-14T03:03:23.243Z,18.04
2023-04-14T03:04:36.951Z,18.03
2023-04-14T03:05:39.877Z,18.03
2023-04-14T03:06:53.284Z,18.03
2023-04-14T03:08:05.967Z,18.02
2023-04-14T03:09:09.759Z,18.03
2023-04-14T03:10:22.466Z,18.03
2023-04-14T03:11:35.783Z,18.02
2023-04-14T03:12:38.599Z,18.03
2023-04-14T03:13:52.272Z,18.0
2023-04-14T03:15:04.981Z,18.0
2023-04-14T03:16:18.270Z,18.02
2023-04-14T03:17:21.102Z,18.0
2023-04-14T03:18:34.764Z,18.0
2023-04-14T03:19:47.551Z,18.02
2023-04-14T03:20:51.261Z,18.02
2023-04-14T03:22:03.948Z,18.0
2023-04-14T03:23:17.237Z,18.0
2023-04-14T03:24:29.975Z,17.99
2023-04-14T03:25:33.762Z,17.99
2023-04-14T03:26:46.463Z,18.0
2023-04-14T03:27:59.768Z,18.0
2023-04-14T03:29:02.638Z,17.99
2023-04-14T03:30:16.764Z,18.02
2023-04-14T03:31:29.533Z,18.0
2023-04-14T03:32:33.295Z,17.97
2023-04-14T03:33:46.029Z,17.99
2023-04-14T03:34:59.731Z,17.97
2023-04-14T03:36:02.462Z,17.94
2023-04-14T03:37:15.771Z,17.99
2023-04-14T03:38:28.501Z,18.0
2023-04-14T03:39:42.261Z,17.97
2023-04-14T03:40:45.068Z,17.97
2023-04-14T03:41:58.806Z,17.97
2023-04-14T03:43:11.492Z,17.99
2023-04-14T03:44:15.238Z,17.99
2023-04-14T03:45:27.909Z,17.97
2023-04-14T03:46:41.852Z,17.97
2023-04-14T03:47:44.884Z,17.96
2023-04-14T03:48:58.484Z,17.94
2023-04-14T03:50:11.325Z,17.97
2023-04-14T03:51:14.781Z,17.96
2023-04-14T03:52:27.485Z,17.94
2023-04-14T03:53:40.784Z,17.94
2023-04-14T03:54:53.495Z,17.96
2023-04-14T03:55:57.283Z,17.94
2023-04-14T03:57:09.992Z,17.94
2023-04-14T03:58:23.729Z,17.96
2023-04-14T03:59:26.444Z,17.96
2023-04-14T04:00:40.276Z,17.96
2023-04-14T04:01:53.029Z,17.94
2023-04-14T04:02:56.913Z,17.96
2023-04-14T04:04:09.925Z,17.96
2023-04-14T04:05:23.758Z,17.94
2023-04-14T04:06:26.514Z,17.96
2023-04-14T04:07:39.747Z,17.97
2023-04-14T04:08:52.439Z,17.96
2023-04-14T04:10:05.756Z,17.96
2023-04-14T04:11:08.489Z,17.94
2023-04-14T04:12:21.762Z,17.97
2023-04-14T04:13:34.463Z,17.94
2023-04-14T04:14:39.115Z,17.96
2023-04-14T04:16:11.963Z,17.97
2023-04-14T04:17:05.758Z,17.96
2023-04-14T04:18:08.590Z,17.97
2023-04-14T04:19:22.254Z,17.99
2023-04-14T04:20:34.927Z,18.0
2023-04-14T04:21:38.265Z,18.0
2023-04-14T04:22:50.920Z,17.97
2023-04-14T04:24:04.765Z,18.0
2023-04-14T04:25:07.523Z,18.02
2023-04-14T04:26:21.242Z,18.0
2023-04-14T04:27:33.942Z,18.0
2023-04-14T04:28:47.255Z,18.0
2023-04-14T04:29:50.019Z,17.99
2023-04-14T04:31:15.769Z,17.99
2023-04-14T04:32:08.601Z,18.0
2023-04-14T04:33:22.254Z,17.97
2023-04-14T04:34:34.926Z,17.97
2023-04-14T04:35:48.552Z,17.97
2023-04-14T04:36:51.705Z,18.0
2023-04-14T04:38:05.272Z,18.02
2023-04-14T04:39:17.933Z,17.99
2023-04-14T04:40:21.262Z,18.0
2023-04-14T04:41:43.941Z,18.0
2023-04-14T04:42:47.848Z,17.97
2023-04-14T04:43:50.605Z,17.99
2023-04-14T04:45:04.265Z,18.02
2023-04-14T04:46:17.114Z,18.02
2023-04-14T04:47:21.398Z,18.02
2023-04-14T04:48:34.209Z,18.02
2023-04-14T04:49:48.660Z,18.0
2023-04-14T04:50:51.417Z,18.0
2023-04-14T04:52:04.762Z,18.0
2023-04-14T04:53:17.465Z,18.03
2023-04-14T04:54:20.759Z,18.12
2023-04-14T04:55:53.309Z,18.23
2023-04-14T04:56:46.783Z,18.31
2023-04-14T04:57:59.344Z,18.43
2023-04-14T04:59:02.883Z,18.57
2023-04-14T05:00:25.554Z,18.68
2023-04-14T05:01:29.268Z,18.81
2023-04-14T05:02:32.003Z,18.91
2023-04-14T05:03:45.751Z,19.01
2023-04-14T05:04:58.312Z,19.08
2023-04-14T05:06:11.802Z,19.19
2023-04-14T05:07:14.327Z,19.25
2023-04-14T05:08:27.763Z,19.32
2023-04-14T05:09:40.200Z,19.39
2023-04-14T05:10:43.779Z,19.45
2023-04-14T05:11:56.214Z,19.49
2023-04-14T05:13:29.284Z,19.53
2023-04-14T05:14:12.024Z,19.57
2023-04-14T05:15:24.386Z,19.63
2023-04-14T05:16:37.757Z,19.66
2023-04-14T05:17:50.158Z,19.71
2023-04-14T05:18:53.292Z,19.74
2023-04-14T05:20:05.635Z,19.77
2023-04-14T05:21:18.805Z,19.8
2023-04-14T05:22:31.435Z,19.83
2023-04-14T05:23:34.770Z,19.86
2023-04-14T05:24:47.143Z,19.88
2023-04-14T05:26:16.305Z,19.87
